sensor_id;sensor_type;location;lat;lon;timestamp;pressure;altitude;pressure_sealevel;temperature;humidity
46015;BME280;36844;51.898;-0.874;2023-06-22T00:00:43;100716.53;;;22.25;
46015;BME280;36844;51.898;-0.874;2023-06-22T00:03:09;100721.78;;;22.32;
46015;BME280;36844;51.898;-0.874;2023-06-22T00:05:35;100714.25;;;22.23;
46015;BME280;36844;51.898;-0.874;2023-06-22T00:08:03;100720.41;;;22.24;
46015;BME280;36844;51.898;-0.874;2023-06-22T00:10:30;100739.63;;;22.33;
46015;BME280;36844;51.898;-0.874;2023-06-22T00:12:55;100736.97;;;22.29;
46015;BME280;36844;51.898;-0.874;2023-06-22T00:15:20;100734.19;;;22.33;
46015;BME280;36844;51.898;-0.874;2023-06-22T00:17:45;100715.00;;;22.24;
46015;BME280;36844;51.898;-0.874;2023-06-22T00:20:11;100725.84;;;22.24;
46015;BME280;36844;51.898;-0.874;2023-06-22T00:22:36;100734.34;;;22.26;
46015;BME280;36844;51.898;-0.874;2023-06-22T00:25:07;100741.25;;;22.30;
46015;BME280;36844;51.898;-0.874;2023-06-22T00:27:32;100736.69;;;22.24;
46015;BME280;36844;51.898;-0.874;2023-06-22T00:29:58;100730.19;;;22.21;
46015;BME280;36844;51.898;-0.874;2023-06-22T00:32:23;100748.63;;;22.30;
46015;BME280;36844;51.898;-0.874;2023-06-22T00:34:48;100749.00;;;22.28;
46015;BME280;36844;51.898;-0.874;2023-06-22T00:37:15;100747.91;;;22.26;
46015;BME280;36844;51.898;-0.874;2023-06-22T00:39:41;100742.13;;;22.24;
46015;BME280;36844;51.898;-0.874;2023-06-22T00:42:06;100752.16;;;22.27;
46015;BME280;36844;51.898;-0.874;2023-06-22T00:44:32;100750.63;;;22.26;
46015;BME280;36844;51.898;-0.874;2023-06-22T00:46:57;100748.31;;;22.24;
46015;BME280;36844;51.898;-0.874;2023-06-22T00:49:23;100742.19;;;22.20;
46015;BME280;36844;51.898;-0.874;2023-06-22T00:51:48;100740.59;;;22.23;
46015;BME280;36844;51.898;-0.874;2023-06-22T00:54:14;100733.72;;;22.18;
46015;BME280;36844;51.898;-0.874;2023-06-22T00:56:40;100756.47;;;22.24;
46015;BME280;36844;51.898;-0.874;2023-06-22T00:59:06;100744.59;;;22.18;
46015;BME280;36844;51.898;-0.874;2023-06-22T01:01:31;100739.16;;;22.18;
46015;BME280;36844;51.898;-0.874;2023-06-22T01:03:57;100743.81;;;22.18;
46015;BME280;36844;51.898;-0.874;2023-06-22T01:06:29;100743.81;;;22.18;
46015;BME280;36844;51.898;-0.874;2023-06-22T01:09:02;100743.13;;;22.14;
46015;BME280;36844;51.898;-0.874;2023-06-22T01:11:41;100751.97;;;22.18;
46015;BME280;36844;51.898;-0.874;2023-06-22T01:14:15;100739.63;;;22.13;
46015;BME280;36844;51.898;-0.874;2023-06-22T01:16:44;100751.63;;;22.16;
46015;BME280;36844;51.898;-0.874;2023-06-22T01:19:35;100742.28;;;22.17;
46015;BME280;36844;51.898;-0.874;2023-06-22T01:22:01;100744.97;;;22.17;
46015;BME280;36844;51.898;-0.874;2023-06-22T01:24:36;100749.25;;;22.18;
46015;BME280;36844;51.898;-0.874;2023-06-22T01:29:50;100736.59;;;22.11;
46015;BME280;36844;51.898;-0.874;2023-06-22T01:32:17;100720.69;;;22.09;
46015;BME280;36844;51.898;-0.874;2023-06-22T01:34:43;100717.66;;;22.08;
46015;BME280;36844;51.898;-0.874;2023-06-22T01:37:09;100731.25;;;22.08;
46015;BME280;36844;51.898;-0.874;2023-06-22T01:39:34;100734.28;;;22.09;
46015;BME280;36844;51.898;-0.874;2023-06-22T01:42:00;100741.94;;;22.15;
46015;BME280;36844;51.898;-0.874;2023-06-22T01:44:27;100730.88;;;22.05;
46015;BME280;36844;51.898;-0.874;2023-06-22T01:46:53;100743.25;;;22.06;
46015;BME280;36844;51.898;-0.874;2023-06-22T01:49:18;100745.56;;;22.08;
46015;BME280;36844;51.898;-0.874;2023-06-22T01:51:44;100727.13;;;21.99;
46015;BME280;36844;51.898;-0.874;2023-06-22T01:54:09;100736.97;;;22.09;
46015;BME280;36844;51.898;-0.874;2023-06-22T01:56:35;100740.16;;;22.08;
46015;BME280;36844;51.898;-0.874;2023-06-22T01:59:28;100752.53;;;22.09;
46015;BME280;36844;51.898;-0.874;2023-06-22T02:02:06;100727.13;;;21.99;
46015;BME280;36844;51.898;-0.874;2023-06-22T02:04:52;100732.91;;;22.01;
46015;BME280;36844;51.898;-0.874;2023-06-22T02:07:23;100751.00;;;22.08;
46015;BME280;36844;51.898;-0.874;2023-06-22T02:09:50;100719.88;;;21.93;
46015;BME280;36844;51.898;-0.874;2023-06-22T02:12:18;100722.09;;;21.98;
46015;BME280;36844;51.898;-0.874;2023-06-22T02:14:46;100733.94;;;22.08;
46015;BME280;36844;51.898;-0.874;2023-06-22T02:17:12;100737.81;;;22.06;
46015;BME280;36844;51.898;-0.874;2023-06-22T02:19:38;100739.78;;;22.06;
46015;BME280;36844;51.898;-0.874;2023-06-22T02:22:05;100734.81;;;22.01;
46015;BME280;36844;51.898;-0.874;2023-06-22T02:24:31;100729.84;;;21.99;
46015;BME280;36844;51.898;-0.874;2023-06-22T02:26:58;100747.16;;;22.05;
46015;BME280;36844;51.898;-0.874;2023-06-22T02:29:24;100758.00;;;22.05;
46015;BME280;36844;51.898;-0.874;2023-06-22T02:31:49;100747.28;;;21.98;
46015;BME280;36844;51.898;-0.874;2023-06-22T02:34:14;100738.19;;;21.89;
46015;BME280;36844;51.898;-0.874;2023-06-22T02:36:45;100743.56;;;21.92;
46015;BME280;36844;51.898;-0.874;2023-06-22T02:39:19;100754.94;;;22.03;
46015;BME280;36844;51.898;-0.874;2023-06-22T02:41:45;100736.13;;;21.96;
46015;BME280;36844;51.898;-0.874;2023-06-22T02:44:10;100741.16;;;21.94;
46015;BME280;36844;51.898;-0.874;2023-06-22T02:46:36;100746.44;;;22.01;
46015;BME280;36844;51.898;-0.874;2023-06-22T02:49:01;100739.94;;;21.99;
46015;BME280;36844;51.898;-0.874;2023-06-22T02:51:26;100750.34;;;22.00;
46015;BME280;36844;51.898;-0.874;2023-06-22T02:53:52;100737.28;;;21.95;
46015;BME280;36844;51.898;-0.874;2023-06-22T02:56:22;100742.66;;;21.99;
46015;BME280;36844;51.898;-0.874;2023-06-22T02:58:50;100725.50;;;21.82;
46015;BME280;36844;51.898;-0.874;2023-06-22T03:01:16;100738.88;;;21.93;
46015;BME280;36844;51.898;-0.874;2023-06-22T03:03:41;100745.75;;;21.97;
46015;BME280;36844;51.898;-0.874;2023-06-22T03:06:06;100740.50;;;21.90;
46015;BME280;36844;51.898;-0.874;2023-06-22T03:08:31;100744.38;;;21.89;
46015;BME280;36844;51.898;-0.874;2023-06-22T03:10:57;100732.81;;;21.85;
46015;BME280;36844;51.898;-0.874;2023-06-22T03:13:22;100745.81;;;21.94;
46015;BME280;36844;51.898;-0.874;2023-06-22T03:15:48;100743.56;;;21.92;
46015;BME280;36844;51.898;-0.874;2023-06-22T03:18:13;100741.66;;;21.89;
46015;BME280;36844;51.898;-0.874;2023-06-22T03:20:38;100744.78;;;21.88;
46015;BME280;36844;51.898;-0.874;2023-06-22T03:23:04;100757.88;;;21.93;
46015;BME280;36844;51.898;-0.874;2023-06-22T03:25:30;100752.44;;;21.93;
46015;BME280;36844;51.898;-0.874;2023-06-22T03:27:55;100752.84;;;21.91;
46015;BME280;36844;51.898;-0.874;2023-06-22T03:30:20;100747.44;;;21.91;
46015;BME280;36844;51.898;-0.874;2023-06-22T03:32:46;100737.06;;;21.86;
46015;BME280;36844;51.898;-0.874;2023-06-22T03:35:12;100743.19;;;21.90;
46015;BME280;36844;51.898;-0.874;2023-06-22T03:37:39;100738.19;;;21.89;
46015;BME280;36844;51.898;-0.874;2023-06-22T03:40:05;100743.63;;;21.89;
46015;BME280;36844;51.898;-0.874;2023-06-22T03:42:30;100735.53;;;21.85;
46015;BME280;36844;51.898;-0.874;2023-06-22T03:44:56;100732.00;;;21.88;
46015;BME280;36844;51.898;-0.874;2023-06-22T03:47:22;100729.69;;;21.87;
46015;BME280;36844;51.898;-0.874;2023-06-22T03:49:47;100735.97;;;21.84;
46015;BME280;36844;51.898;-0.874;2023-06-22T03:52:12;100731.78;;;21.79;
46015;BME280;36844;51.898;-0.874;2023-06-22T03:54:38;100735.25;;;21.80;
46015;BME280;36844;51.898;-0.874;2023-06-22T03:57:03;100719.81;;;21.77;
46015;BME280;36844;51.898;-0.874;2023-06-22T03:59:29;100726.72;;;21.81;
46015;BME280;36844;51.898;-0.874;2023-06-22T04:01:54;100723.25;;;21.81;
46015;BME280;36844;51.898;-0.874;2023-06-22T04:04:20;100729.78;;;21.83;
46015;BME280;36844;51.898;-0.874;2023-06-22T04:06:45;100723.56;;;21.83;
46015;BME280;36844;51.898;-0.874;2023-06-22T04:09:11;100720.94;;;21.79;
46015;BME280;36844;51.898;-0.874;2023-06-22T04:11:36;100724.75;;;21.82;
46015;BME280;36844;51.898;-0.874;2023-06-22T04:14:02;100698.63;;;21.72;
46015;BME280;36844;51.898;-0.874;2023-06-22T04:16:27;100711.69;;;21.77;
46015;BME280;36844;51.898;-0.874;2023-06-22T04:18:52;100691.00;;;21.63;
46015;BME280;36844;51.898;-0.874;2023-06-22T04:21:17;100708.22;;;21.76;
46015;BME280;36844;51.898;-0.874;2023-06-22T04:23:45;100722.09;;;21.78;
46015;BME280;36844;51.898;-0.874;2023-06-22T04:26:11;100694.44;;;21.67;
46015;BME280;36844;51.898;-0.874;2023-06-22T04:28:37;100713.28;;;21.74;
46015;BME280;36844;51.898;-0.874;2023-06-22T04:31:02;100705.56;;;21.73;
46015;BME280;36844;51.898;-0.874;2023-06-22T04:33:28;100712.84;;;21.76;
46015;BME280;36844;51.898;-0.874;2023-06-22T04:35:54;100719.91;;;21.73;
46015;BME280;36844;51.898;-0.874;2023-06-22T04:38:22;100723.09;;;21.68;
46015;BME280;36844;51.898;-0.874;2023-06-22T04:40:47;100733.47;;;21.70;
46015;BME280;36844;51.898;-0.874;2023-06-22T04:43:13;100721.38;;;21.55;
46015;BME280;36844;51.898;-0.874;2023-06-22T04:45:38;100743.09;;;21.74;
46015;BME280;36844;51.898;-0.874;2023-06-22T04:48:05;100750.47;;;21.74;
46015;BME280;36844;51.898;-0.874;2023-06-22T04:50:30;100744.72;;;21.72;
46015;BME280;36844;51.898;-0.874;2023-06-22T04:52:55;100744.00;;;21.68;
46015;BME280;36844;51.898;-0.874;2023-06-22T04:55:21;100750.88;;;21.72;
46015;BME280;36844;51.898;-0.874;2023-06-22T04:57:47;100739.03;;;21.63;
46015;BME280;36844;51.898;-0.874;2023-06-22T05:00:19;100752.06;;;21.71;
46015;BME280;36844;51.898;-0.874;2023-06-22T05:02:45;100747.81;;;21.70;
46015;BME280;36844;51.898;-0.874;2023-06-22T05:05:11;100744.78;;;21.68;
46015;BME280;36844;51.898;-0.874;2023-06-22T05:07:43;100747.03;;;21.70;
46015;BME280;36844;51.898;-0.874;2023-06-22T05:10:10;100730.22;;;21.59;
46015;BME280;36844;51.898;-0.874;2023-06-22T05:12:36;100732.88;;;21.62;
46015;BME280;36844;51.898;-0.874;2023-06-22T05:15:02;100747.81;;;21.70;
46015;BME280;36844;51.898;-0.874;2023-06-22T05:17:27;100741.00;;;21.62;
46015;BME280;36844;51.898;-0.874;2023-06-22T05:19:53;100759.84;;;21.69;
46015;BME280;36844;51.898;-0.874;2023-06-22T05:22:20;100743.72;;;21.62;
46015;BME280;36844;51.898;-0.874;2023-06-22T05:24:45;100758.66;;;21.70;
46015;BME280;36844;51.898;-0.874;2023-06-22T05:27:11;100753.31;;;21.67;
46015;BME280;36844;51.898;-0.874;2023-06-22T05:29:37;100754.91;;;21.64;
46015;BME280;36844;51.898;-0.874;2023-06-22T05:32:03;100749.50;;;21.64;
46015;BME280;36844;51.898;-0.874;2023-06-22T05:34:28;100754.16;;;21.64;
46015;BME280;36844;51.898;-0.874;2023-06-22T05:36:54;100757.97;;;21.66;
46015;BME280;36844;51.898;-0.874;2023-06-22T05:39:19;100755.69;;;21.65;
46015;BME280;36844;51.898;-0.874;2023-06-22T05:41:45;100759.94;;;21.66;
46015;BME280;36844;51.898;-0.874;2023-06-22T05:44:11;100774.94;;;21.70;
46015;BME280;36844;51.898;-0.874;2023-06-22T05:46:41;100773.34;;;21.73;
46015;BME280;36844;51.898;-0.874;2023-06-22T05:49:09;100756.53;;;21.62;
46015;BME280;36844;51.898;-0.874;2023-06-22T05:51:35;100764.94;;;21.67;
46015;BME280;36844;51.898;-0.874;2023-06-22T05:54:00;100775.28;;;21.72;
46015;BME280;36844;51.898;-0.874;2023-06-22T05:56:25;100757.28;;;21.62;
46015;BME280;36844;51.898;-0.874;2023-06-22T05:58:51;100774.59;;;21.68;
46015;BME280;36844;51.898;-0.874;2023-06-22T06:01:16;100762.22;;;21.67;
46015;BME280;36844;51.898;-0.874;2023-06-22T06:03:41;100764.59;;;21.65;
46015;BME280;36844;51.898;-0.874;2023-06-22T06:06:07;100778.00;;;21.72;
46015;BME280;36844;51.898;-0.874;2023-06-22T06:08:33;100779.97;;;21.72;
46015;BME280;36844;51.898;-0.874;2023-06-22T06:10:58;100748.50;;;21.55;
46015;BME280;36844;51.898;-0.874;2023-06-22T06:13:23;100771.50;;;21.66;
46015;BME280;36844;51.898;-0.874;2023-06-22T06:15:49;100763.88;;;21.61;
46015;BME280;36844;51.898;-0.874;2023-06-22T06:18:16;100777.31;;;21.68;
46015;BME280;36844;51.898;-0.874;2023-06-22T06:20:41;100774.59;;;21.68;
46015;BME280;36844;51.898;-0.874;2023-06-22T06:23:07;100779.59;;;21.70;
46015;BME280;36844;51.898;-0.874;2023-06-22T06:25:32;100773.41;;;21.69;
46015;BME280;36844;51.898;-0.874;2023-06-22T06:27:57;100771.97;;;21.65;
46015;BME280;36844;51.898;-0.874;2023-06-22T06:30:23;100768.94;;;21.59;
46015;BME280;36844;51.898;-0.874;2023-06-22T06:32:49;100770.13;;;21.58;
46015;BME280;36844;51.898;-0.874;2023-06-22T06:35:15;100764.28;;;21.60;
46015;BME280;36844;51.898;-0.874;2023-06-22T06:37:48;100767.25;;;21.69;
46015;BME280;36844;51.898;-0.874;2023-06-22T06:40:14;100764.09;;;21.70;
46015;BME280;36844;51.898;-0.874;2023-06-22T06:42:49;100758.72;;;21.67;
46015;BME280;36844;51.898;-0.874;2023-06-22T06:45:19;100743.06;;;21.55;
46015;BME280;36844;51.898;-0.874;2023-06-22T06:47:45;100756.47;;;21.65;
46015;BME280;36844;51.898;-0.874;2023-06-22T06:50:10;100766.03;;;21.70;
46015;BME280;36844;51.898;-0.874;2023-06-22T06:52:36;100769.97;;;21.69;
46015;BME280;36844;51.898;-0.874;2023-06-22T06:55:01;100763.88;;;21.61;
46015;BME280;36844;51.898;-0.874;2023-06-22T06:57:29;100764.59;;;21.65;
46015;BME280;36844;51.898;-0.874;2023-06-22T06:59:55;100772.22;;;21.70;
46015;BME280;36844;51.898;-0.874;2023-06-22T07:02:21;100768.09;;;21.66;
46015;BME280;36844;51.898;-0.874;2023-06-22T07:04:47;100763.44;;;21.63;
46015;BME280;36844;51.898;-0.874;2023-06-22T07:07:12;100774.56;;;21.72;
46015;BME280;36844;51.898;-0.874;2023-06-22T07:09:37;100754.91;;;21.64;
46015;BME280;36844;51.898;-0.874;2023-06-22T07:12:03;100754.56;;;21.62;
46015;BME280;36844;51.898;-0.874;2023-06-22T07:14:28;100751.91;;;21.59;
46015;BME280;36844;51.898;-0.874;2023-06-22T07:16:54;100769.03;;;21.75;
46015;BME280;36844;51.898;-0.874;2023-06-22T07:19:29;100763.31;;;21.70;
46015;BME280;36844;51.898;-0.874;2023-06-22T07:21:56;100768.72;;;21.73;
46015;BME280;36844;51.898;-0.874;2023-06-22T07:24:22;100763.06;;;21.64;
46015;BME280;36844;51.898;-0.874;2023-06-22T07:26:48;100751.44;;;21.64;
46015;BME280;36844;51.898;-0.874;2023-06-22T07:29:15;100759.56;;;21.64;
46015;BME280;36844;51.898;-0.874;2023-06-22T07:31:40;100755.75;;;21.61;
46015;BME280;36844;51.898;-0.874;2023-06-22T07:34:06;100759.50;;;21.67;
46015;BME280;36844;51.898;-0.874;2023-06-22T07:36:31;100741.19;;;21.52;
46015;BME280;36844;51.898;-0.874;2023-06-22T07:38:57;100761.50;;;21.63;
46015;BME280;36844;51.898;-0.874;2023-06-22T07:41:22;100748.91;;;21.53;
46015;BME280;36844;51.898;-0.874;2023-06-22T07:43:48;100761.94;;;21.62;
46015;BME280;36844;51.898;-0.874;2023-06-22T07:46:13;100749.31;;;21.52;
46015;BME280;36844;51.898;-0.874;2023-06-22T07:48:38;100753.19;;;21.51;
46015;BME280;36844;51.898;-0.874;2023-06-22T07:51:04;100754.31;;;21.53;
46015;BME280;36844;51.898;-0.874;2023-06-22T07:53:30;100753.16;;;21.54;
46015;BME280;36844;51.898;-0.874;2023-06-22T07:55:56;100760.41;;;21.61;
46015;BME280;36844;51.898;-0.874;2023-06-22T07:58:21;100755.50;;;21.52;
46015;BME280;36844;51.898;-0.874;2023-06-22T08:00:46;100749.75;;;21.50;
46015;BME280;36844;51.898;-0.874;2023-06-22T08:03:12;100758.59;;;21.54;
46015;BME280;36844;51.898;-0.874;2023-06-22T08:05:38;100755.03;;;21.57;
46015;BME280;36844;51.898;-0.874;2023-06-22T08:08:03;100768.13;;;21.62;
46015;BME280;36844;51.898;-0.874;2023-06-22T08:10:29;100764.22;;;21.63;
46015;BME280;36844;51.898;-0.874;2023-06-22T08:12:54;100745.38;;;21.56;
46015;BME280;36844;51.898;-0.874;2023-06-22T08:15:20;100749.19;;;21.59;
46015;BME280;36844;51.898;-0.874;2023-06-22T08:17:45;100753.03;;;21.61;
46015;BME280;36844;51.898;-0.874;2023-06-22T08:20:11;100759.19;;;21.65;
46015;BME280;36844;51.898;-0.874;2023-06-22T08:22:38;100754.91;;;21.64;
46015;BME280;36844;51.898;-0.874;2023-06-22T08:25:04;100757.56;;;21.68;
46015;BME280;36844;51.898;-0.874;2023-06-22T08:27:30;100753.25;;;21.70;
46015;BME280;36844;51.898;-0.874;2023-06-22T08:29:58;100750.88;;;21.72;
46015;BME280;36844;51.898;-0.874;2023-06-22T08:32:25;100748.59;;;21.71;
46015;BME280;36844;51.898;-0.874;2023-06-22T08:34:52;100740.13;;;21.69;
46015;BME280;36844;51.898;-0.874;2023-06-22T08:37:18;100740.75;;;21.76;
46015;BME280;36844;51.898;-0.874;2023-06-22T08:39:43;100749.22;;;21.78;
46015;BME280;36844;51.898;-0.874;2023-06-22T08:42:08;100734.63;;;21.72;
46015;BME280;36844;51.898;-0.874;2023-06-22T08:44:34;100741.47;;;21.80;
46015;BME280;36844;51.898;-0.874;2023-06-22T08:46:59;100739.06;;;21.82;
46015;BME280;36844;51.898;-0.874;2023-06-22T08:49:24;100741.72;;;21.86;
46015;BME280;36844;51.898;-0.874;2023-06-22T08:51:50;100731.72;;;21.83;
46015;BME280;36844;51.898;-0.874;2023-06-22T08:54:17;100734.03;;;21.84;
46015;BME280;36844;51.898;-0.874;2023-06-22T08:56:42;100743.19;;;21.90;
46015;BME280;36844;51.898;-0.874;2023-06-22T08:59:09;100734.72;;;21.88;
46015;BME280;36844;51.898;-0.874;2023-06-22T09:01:34;100732.78;;;21.89;
46015;BME280;36844;51.898;-0.874;2023-06-22T09:03:59;100736.59;;;21.91;
46015;BME280;36844;51.898;-0.874;2023-06-22T09:06:25;100750.41;;;21.97;
46015;BME280;36844;51.898;-0.874;2023-06-22T09:08:50;100748.13;;;21.95;
46015;BME280;36844;51.898;-0.874;2023-06-22T09:11:16;100730.47;;;21.87;
46015;BME280;36844;51.898;-0.874;2023-06-22T09:13:41;100754.94;;;22.03;
46015;BME280;36844;51.898;-0.874;2023-06-22T09:16:07;100732.00;;;21.88;
46015;BME280;36844;51.898;-0.874;2023-06-22T09:18:34;100744.25;;;21.96;
46015;BME280;36844;51.898;-0.874;2023-06-22T09:20:59;100750.28;;;22.04;
46015;BME280;36844;51.898;-0.874;2023-06-22T09:23:24;100738.66;;;22.03;
46015;BME280;36844;51.898;-0.874;2023-06-22T09:25:50;100745.56;;;22.08;
46015;BME280;36844;51.898;-0.874;2023-06-22T09:28:15;100757.78;;;22.16;
46015;BME280;36844;51.898;-0.874;2023-06-22T09:30:42;100747.44;;;22.11;
46015;BME280;36844;51.898;-0.874;2023-06-22T09:33:09;100753.91;;;22.17;
46015;BME280;36844;51.898;-0.874;2023-06-22T09:35:34;100736.59;;;22.11;
46015;BME280;36844;51.898;-0.874;2023-06-22T09:37:59;100737.63;;;22.17;
46015;BME280;36844;51.898;-0.874;2023-06-22T09:40:25;100743.81;;;22.18;
46015;BME280;36844;51.898;-0.874;2023-06-22T09:42:50;100747.97;;;22.22;
46015;BME280;36844;51.898;-0.874;2023-06-22T09:45:15;100750.69;;;22.22;
46015;BME280;36844;51.898;-0.874;2023-06-22T09:47:41;100748.81;;;22.19;
46015;BME280;36844;51.898;-0.874;2023-06-22T09:50:07;100757.91;;;22.29;
46015;BME280;36844;51.898;-0.874;2023-06-22T09:52:33;100763.72;;;22.31;
46015;BME280;36844;51.898;-0.874;2023-06-22T09:54:59;100743.81;;;22.18;
46015;BME280;36844;51.898;-0.874;2023-06-22T09:57:24;100771.69;;;22.38;
46015;BME280;36844;51.898;-0.874;2023-06-22T09:59:49;100769.81;;;22.35;
46015;BME280;36844;51.898;-0.874;2023-06-22T10:02:14;100766.00;;;22.32;
46015;BME280;36844;51.898;-0.874;2023-06-22T10:04:40;100769.41;;;22.36;
46015;BME280;36844;51.898;-0.874;2023-06-22T10:07:05;100772.78;;;22.40;
46015;BME280;36844;51.898;-0.874;2023-06-22T10:09:31;100761.94;;;22.40;
46015;BME280;36844;51.898;-0.874;2023-06-22T10:11:56;100768.78;;;22.48;
46015;BME280;36844;51.898;-0.874;2023-06-22T10:14:22;100775.28;;;22.51;
46015;BME280;36844;51.898;-0.874;2023-06-22T10:16:48;100770.72;;;22.48;
46015;BME280;36844;51.898;-0.874;2023-06-22T10:19:13;100775.63;;;22.53;
46015;BME280;36844;51.898;-0.874;2023-06-22T10:21:38;100764.13;;;22.49;
46015;BME280;36844;51.898;-0.874;2023-06-22T10:24:04;100773.63;;;22.57;
46015;BME280;36844;51.898;-0.874;2023-06-22T10:26:33;100750.78;;;22.54;
46015;BME280;36844;51.898;-0.874;2023-06-22T10:28:59;100758.81;;;22.61;
46015;BME280;36844;51.898;-0.874;2023-06-22T10:31:24;100754.84;;;22.62;
46015;BME280;36844;51.898;-0.874;2023-06-22T10:33:50;100755.25;;;22.64;
46015;BME280;36844;51.898;-0.874;2023-06-22T10:36:15;100757.50;;;22.66;
46015;BME280;36844;51.898;-0.874;2023-06-22T10:38:40;100751.75;;;22.64;
46015;BME280;36844;51.898;-0.874;2023-06-22T10:41:06;100757.38;;;22.73;
46015;BME280;36844;51.898;-0.874;2023-06-22T10:43:31;100763.28;;;22.68;
46015;BME280;36844;51.898;-0.874;2023-06-22T10:45:57;100760.41;;;22.75;
46015;BME280;36844;51.898;-0.874;2023-06-22T10:48:22;100748.19;;;22.67;
46015;BME280;36844;51.898;-0.874;2023-06-22T10:50:47;100754.97;;;22.75;
46015;BME280;36844;51.898;-0.874;2023-06-22T10:53:13;100752.25;;;22.75;
46015;BME280;36844;51.898;-0.874;2023-06-22T10:55:38;100751.16;;;22.72;
46015;BME280;36844;51.898;-0.874;2023-06-22T10:58:03;100747.69;;;22.72;
46015;BME280;36844;51.898;-0.874;2023-06-22T11:00:28;100754.56;;;22.76;
46015;BME280;36844;51.898;-0.874;2023-06-22T11:02:54;100766.81;;;22.84;
46015;BME280;36844;51.898;-0.874;2023-06-22T11:05:19;100774.19;;;22.84;
46015;BME280;36844;51.898;-0.874;2023-06-22T11:07:44;100752.94;;;22.79;
46015;BME280;36844;51.898;-0.874;2023-06-22T11:10:11;100764.88;;;22.85;
46015;BME280;36844;51.898;-0.874;2023-06-22T11:12:37;100759.47;;;22.81;
46015;BME280;36844;51.898;-0.874;2023-06-22T11:15:02;100760.69;;;22.80;
46015;BME280;36844;51.898;-0.874;2023-06-22T11:17:28;100749.16;;;22.76;
46015;BME280;36844;51.898;-0.874;2023-06-22T11:19:53;100765.09;;;22.90;
46015;BME280;36844;51.898;-0.874;2023-06-22T11:22:18;100768.91;;;22.93;
46015;BME280;36844;51.898;-0.874;2023-06-22T11:24:44;100760.91;;;22.86;
46015;BME280;36844;51.898;-0.874;2023-06-22T11:27:09;100770.03;;;22.95;
46015;BME280;36844;51.898;-0.874;2023-06-22T11:29:34;100762.38;;;22.90;
46015;BME280;36844;51.898;-0.874;2023-06-22T11:32:00;100753.91;;;22.88;
46015;BME280;36844;51.898;-0.874;2023-06-22T11:34:26;100755.66;;;22.95;
46015;BME280;36844;51.898;-0.874;2023-06-22T11:36:51;100762.47;;;23.03;
46015;BME280;36844;51.898;-0.874;2023-06-22T11:39:16;100756.59;;;23.04;
46015;BME280;36844;51.898;-0.874;2023-06-22T11:41:42;100732.91;;;22.89;
46015;BME280;36844;51.898;-0.874;2023-06-22T11:44:08;100750.41;;;23.04;
46015;BME280;36844;51.898;-0.874;2023-06-22T11:46:33;100747.34;;;23.02;
46015;BME280;36844;51.898;-0.874;2023-06-22T11:49:00;100762.63;;;23.12;
46015;BME280;36844;51.898;-0.874;2023-06-22T11:51:25;100746.84;;;23.07;
46015;BME280;36844;51.898;-0.874;2023-06-22T11:53:50;100755.22;;;23.12;
46015;BME280;36844;51.898;-0.874;2023-06-22T11:56:16;100743.47;;;23.03;
46015;BME280;36844;51.898;-0.874;2023-06-22T11:58:41;100759.41;;;23.17;
46015;BME280;36844;51.898;-0.874;2023-06-22T12:01:07;100765.63;;;23.17;
46015;BME280;36844;51.898;-0.874;2023-06-22T12:03:32;100764.06;;;23.16;
46015;BME280;36844;51.898;-0.874;2023-06-22T12:05:57;100753.66;;;23.15;
46015;BME280;36844;51.898;-0.874;2023-06-22T12:08:22;100757.84;;;23.16;
46015;BME280;36844;51.898;-0.874;2023-06-22T12:10:49;100761.25;;;23.20;
46015;BME280;36844;51.898;-0.874;2023-06-22T12:13:15;100751.34;;;23.13;
46015;BME280;36844;51.898;-0.874;2023-06-22T12:15:40;100751.69;;;23.15;
46015;BME280;36844;51.898;-0.874;2023-06-22T12:18:05;100752.41;;;23.16;
46015;BME280;36844;51.898;-0.874;2023-06-22T12:20:30;100732.06;;;23.08;
46015;BME280;36844;51.898;-0.874;2023-06-22T12:22:56;100750.47;;;23.16;
46015;BME280;36844;51.898;-0.874;2023-06-22T12:25:23;100757.78;;;23.19;
46015;BME280;36844;51.898;-0.874;2023-06-22T12:27:48;100748.53;;;23.17;
46015;BME280;36844;51.898;-0.874;2023-06-22T12:30:16;100741.91;;;23.18;
46015;BME280;36844;51.898;-0.874;2023-06-22T12:32:41;100743.09;;;23.17;
46015;BME280;36844;51.898;-0.874;2023-06-22T12:35:07;100729.94;;;23.15;
46015;BME280;36844;51.898;-0.874;2023-06-22T12:37:37;100741.72;;;23.25;
46015;BME280;36844;51.898;-0.874;2023-06-22T12:40:02;100732.78;;;23.24;
46015;BME280;36844;51.898;-0.874;2023-06-22T12:42:29;100720.84;;;23.22;
46015;BME280;36844;51.898;-0.874;2023-06-22T12:44:54;100722.38;;;23.23;
46015;BME280;36844;51.898;-0.874;2023-06-22T12:47:19;100721.19;;;23.24;
46015;BME280;36844;51.898;-0.874;2023-06-22T12:49:45;100718.34;;;23.27;
46015;BME280;36844;51.898;-0.874;2023-06-22T12:52:10;100713.03;;;23.24;
46015;BME280;36844;51.898;-0.874;2023-06-22T12:54:38;100712.25;;;23.23;
46015;BME280;36844;51.898;-0.874;2023-06-22T12:57:04;100707.59;;;23.24;
46015;BME280;36844;51.898;-0.874;2023-06-22T12:59:29;100716.22;;;23.35;
46015;BME280;36844;51.898;-0.874;2023-06-22T13:01:54;100715.91;;;23.33;
46015;BME280;36844;51.898;-0.874;2023-06-22T13:04:20;100707.75;;;23.33;
46015;BME280;36844;51.898;-0.874;2023-06-22T13:06:46;100703.19;;;23.30;
46015;BME280;36844;51.898;-0.874;2023-06-22T13:09:17;100710.47;;;23.33;
46015;BME280;36844;51.898;-0.874;2023-06-22T13:11:43;100691.28;;;23.24;
46015;BME280;36844;51.898;-0.874;2023-06-22T13:14:08;100698.03;;;23.32;
46015;BME280;36844;51.898;-0.874;2023-06-22T13:16:34;100709.09;;;23.41;
46015;BME280;36844;51.898;-0.874;2023-06-22T13:18:59;100710.25;;;23.40;
46015;BME280;36844;51.898;-0.874;2023-06-22T13:21:24;100705.69;;;23.37;
46015;BME280;36844;51.898;-0.874;2023-06-22T13:23:49;100707.88;;;23.42;
46015;BME280;36844;51.898;-0.874;2023-06-22T13:26:15;100703.97;;;23.43;
46015;BME280;36844;51.898;-0.874;2023-06-22T13:28:40;100698.28;;;23.38;